createdAt,value
2024-03-02T00:01:24.030Z,89.90
2024-03-02T00:04:25.990Z,89.50
2024-03-02T00:07:27.671Z,89.30
2024-03-02T00:10:40.807Z,89.20
2024-03-02T00:13:42.656Z,89.30
2024-03-02T00:16:44.320Z,89.20
2024-03-02T00:19:46.455Z,89.00
2024-03-02T00:22:50.734Z,88.80
2024-03-02T00:25:55.792Z,88.60
2024-03-02T00:28:57.523Z,88.80
2024-03-02T00:31:59.627Z,88.40
2024-03-02T00:35:01.950Z,88.30
2024-03-02T00:38:07.502Z,88.40
2024-03-02T00:41:16.493Z,88.30
2024-03-02T00:44:21.532Z,88.30
2024-03-02T00:47:23.225Z,88.40
2024-03-02T00:50:30.734Z,88.50
2024-03-02T00:53:33.473Z,88.50
2024-03-02T00:56:35.347Z,88.40
2024-03-02T00:59:37.573Z,88.60
2024-03-02T01:02:39.212Z,88.80
2024-03-02T01:05:45.259Z,88.90
2024-03-02T01:08:47.377Z,89.10
2024-03-02T01:11:49.029Z,89.00
2024-03-02T01:14:51.620Z,89.00
2024-03-02T01:17:55.645Z,88.90
2024-03-02T01:20:58.525Z,88.90
2024-03-02T01:24:00.805Z,89.00
2024-03-02T01:27:02.593Z,88.70
2024-03-02T01:30:05.324Z,88.70
2024-03-02T01:33:07.366Z,88.80
2024-03-02T01:36:09.162Z,89.00
2024-03-02T01:39:10.846Z,88.90
2024-03-02T01:42:12.500Z,89.00
2024-03-02T01:45:15.034Z,89.20
2024-03-02T01:48:16.800Z,89.10
2024-03-02T01:51:19.821Z,89.20
2024-03-02T01:54:23.365Z,89.10
2024-03-02T01:57:26.056Z,89.10
2024-03-02T02:00:28.770Z,88.80
2024-03-02T02:03:30.568Z,89.10
2024-03-02T02:06:32.939Z,89.20
2024-03-02T02:09:35.243Z,89.30
2024-03-02T02:12:38.003Z,89.30
2024-03-02T02:15:40.307Z,89.30
2024-03-02T02:18:42.023Z,89.10
2024-03-02T02:21:44.401Z,89.00
2024-03-02T02:24:46.224Z,89.10
2024-03-02T02:27:47.882Z,89.20
2024-03-02T02:30:50.815Z,89.50
2024-03-02T02:33:52.771Z,89.10
2024-03-02T02:36:54.871Z,89.00
2024-03-02T02:39:57.516Z,89.20
2024-03-02T02:43:00.127Z,89.30
2024-03-02T02:46:02.034Z,89.40
2024-03-02T02:49:04.897Z,89.30
2024-03-02T02:52:06.626Z,89.10
2024-03-02T02:55:14.258Z,89.10
2024-03-02T02:58:16.395Z,89.00
2024-03-02T03:01:18.721Z,88.90
2024-03-02T03:04:20.421Z,91.40
2024-03-02T03:07:22.653Z,91.60
2024-03-02T03:10:24.330Z,90.20
2024-03-02T03:13:26.043Z,88.80
2024-03-02T03:16:28.286Z,88.00
2024-03-02T03:19:30.004Z,87.70
2024-03-02T03:22:33.597Z,87.90
2024-03-02T03:25:35.231Z,87.80
2024-03-02T03:28:36.917Z,87.80
2024-03-02T03:31:39.176Z,87.90
2024-03-02T03:34:40.905Z,88.10
2024-03-02T03:37:43.649Z,88.10
2024-03-02T03:40:45.308Z,88.40
2024-03-02T03:43:47.444Z,88.60
2024-03-02T03:46:49.160Z,88.80
2024-03-02T03:49:50.797Z,89.00
2024-03-02T03:52:53.506Z,88.90
2024-03-02T03:55:55.147Z,89.10
2024-03-02T03:58:57.732Z,89.00
2024-03-02T04:02:00.045Z,89.00
2024-03-02T04:05:01.685Z,89.00
2024-03-02T04:08:04.655Z,89.20
2024-03-02T04:11:06.928Z,89.30
2024-03-02T04:14:08.603Z,89.50
2024-03-02T04:17:11.425Z,89.50
2024-03-02T04:20:13.196Z,89.40
2024-03-02T04:23:15.310Z,88.90
2024-03-02T04:26:17.539Z,88.80
2024-03-02T04:29:19.236Z,88.80
2024-03-02T04:32:22.062Z,89.00
2024-03-02T04:35:23.750Z,89.00
2024-03-02T04:38:25.825Z,89.10
2024-03-02T04:41:27.505Z,89.10
2024-03-02T04:44:29.124Z,89.10
2024-03-02T04:47:31.268Z,89.20
2024-03-02T04:50:33.000Z,89.40
2024-03-02T04:53:35.085Z,89.60
2024-03-02T04:56:36.810Z,89.50
2024-03-02T04:59:38.434Z,89.70
2024-03-02T05:02:41.096Z,89.90
2024-03-02T05:05:43.117Z,89.90
2024-03-02T05:08:44.740Z,90.00
2024-03-02T05:11:46.910Z,90.00
2024-03-02T05:14:48.556Z,90.00
2024-03-02T05:17:51.313Z,89.80
2024-03-02T05:20:53.622Z,89.60
2024-03-02T05:23:55.261Z,89.30
2024-03-02T05:26:58.018Z,89.20
2024-03-02T05:30:01.002Z,88.90
2024-03-02T05:33:02.791Z,89.10
2024-03-02T05:36:05.845Z,89.30
2024-03-02T05:39:07.477Z,89.10
2024-03-02T05:42:10.165Z,89.20
2024-03-02T05:45:12.425Z,89.10
2024-03-02T05:48:14.066Z,89.30
2024-03-02T05:51:16.405Z,89.20
2024-03-02T05:54:18.717Z,89.00
2024-03-02T05:57:21.007Z,88.90
2024-03-02T06:00:23.263Z,89.10
2024-03-02T06:03:24.901Z,89.10
2024-03-02T06:06:27.678Z,89.00
2024-03-02T06:09:29.937Z,88.90
2024-03-02T06:12:32.574Z,88.70
2024-03-02T06:15:35.355Z,88.70
2024-03-02T06:18:37.126Z,89.00
2024-03-02T06:21:39.458Z,89.10
2024-03-02T06:24:41.621Z,89.30
2024-03-02T06:27:43.280Z,89.00
2024-03-02T06:30:45.086Z,88.50
2024-03-02T06:33:47.017Z,88.40
2024-03-02T06:36:48.799Z,88.10
2024-03-02T06:39:51.122Z,86.70
2024-03-02T06:42:52.870Z,87.30
2024-03-02T06:45:55.103Z,87.30
2024-03-02T06:48:57.018Z,86.90
2024-03-02T06:51:58.857Z,86.60
2024-03-02T06:55:01.741Z,86.00
2024-03-02T06:58:03.590Z,86.20
2024-03-02T07:01:06.433Z,87.30
2024-03-02T07:04:08.178Z,87.00
2024-03-02T07:07:09.909Z,86.70
2024-03-02T07:10:11.859Z,86.60
2024-03-02T07:13:13.561Z,87.00
2024-03-02T07:16:15.410Z,86.90
2024-03-02T07:19:17.126Z,87.20
2024-03-02T07:22:19.031Z,87.10
2024-03-02T07:28:25.582Z,86.90
2024-03-02T07:31:27.433Z,86.50
2024-03-02T07:34:29.447Z,85.70
2024-03-02T07:37:31.165Z,85.80
2024-03-02T07:40:33.146Z,85.80
2024-03-02T07:43:34.895Z,85.40
2024-03-02T07:46:37.069Z,84.70
2024-03-02T07:49:39.310Z,84.20
2024-03-02T07:52:41.289Z,84.10
2024-03-02T07:55:43.268Z,83.80
2024-03-02T07:58:44.897Z,83.30
2024-03-02T08:01:47.044Z,82.90
2024-03-02T08:04:49.118Z,82.10
2024-03-02T08:07:50.799Z,82.30
2024-03-02T08:10:52.792Z,81.90
2024-03-02T08:13:54.619Z,82.20
2024-03-02T08:16:56.714Z,82.20
2024-03-02T08:19:58.977Z,81.90
2024-03-02T08:23:01.052Z,82.00
2024-03-02T08:26:02.899Z,81.10
2024-03-02T08:29:04.799Z,81.20
2024-03-02T08:32:07.227Z,80.60
2024-03-02T08:35:08.992Z,80.20
2024-03-02T08:38:10.854Z,79.40
2024-03-02T08:41:12.529Z,79.20
2024-03-02T08:44:14.798Z,78.40
2024-03-02T08:47:16.706Z,77.20
2024-03-02T08:50:18.663Z,76.70
2024-03-02T08:53:20.657Z,76.20
2024-03-02T08:56:22.339Z,75.70
2024-03-02T08:59:24.367Z,76.10
2024-03-02T09:02:26.105Z,75.10
2024-03-02T09:05:28.028Z,74.90
2024-03-02T09:08:29.717Z,74.90
2024-03-02T09:11:31.838Z,74.90
2024-03-02T09:14:33.731Z,75.80
2024-03-02T09:17:35.478Z,75.10
2024-03-02T09:20:37.303Z,74.80
2024-03-02T09:23:38.960Z,74.30
2024-03-02T09:26:40.642Z,73.30
2024-03-02T09:29:42.637Z,71.90
2024-03-02T09:32:45.034Z,71.40
2024-03-02T09:35:47.900Z,70.60
2024-03-02T09:38:49.772Z,69.20
2024-03-02T09:41:51.807Z,67.50
2024-03-02T09:44:54.025Z,68.00
2024-03-02T09:47:56.273Z,68.10
2024-03-02T09:50:58.123Z,66.40
2024-03-02T09:54:09.781Z,66.60
2024-03-02T09:57:20.010Z,65.60
2024-03-02T10:00:22.074Z,66.40
2024-03-02T10:03:28.850Z,64.50
2024-03-02T10:06:30.724Z,63.70
2024-03-02T10:09:32.456Z,64.20
2024-03-02T10:12:34.515Z,64.40
2024-03-02T10:15:36.953Z,64.60
2024-03-02T10:18:39.014Z,62.40
2024-03-02T10:21:41.578Z,61.70
2024-03-02T10:24:44.940Z,62.70
2024-03-02T10:27:51.395Z,63.30
2024-03-02T10:30:53.802Z,62.40
2024-03-02T10:33:56.431Z,61.20
2024-03-02T10:36:58.813Z,60.30
2024-03-02T10:40:06.276Z,59.70
2024-03-02T10:43:08.990Z,59.80
2024-03-02T10:46:12.231Z,60.10
2024-03-02T10:49:14.409Z,59.80
2024-03-02T10:52:16.119Z,57.10
2024-03-02T10:55:18.391Z,55.70
2024-03-02T10:58:20.660Z,56.00
2024-03-02T11:01:23.146Z,54.50
2024-03-02T11:04:26.372Z,52.60
2024-03-02T11:07:29.328Z,54.20
2024-03-02T11:10:51.424Z,53.70
2024-03-02T11:13:56.498Z,54.60
2024-03-02T11:16:58.981Z,56.30
2024-03-02T11:20:01.454Z,55.70
2024-03-02T11:23:07.761Z,55.80
2024-03-02T11:26:23.021Z,55.10
2024-03-02T11:29:36.716Z,56.00
2024-03-02T11:32:38.741Z,57.00
2024-03-02T11:35:45.423Z,54.60
2024-03-02T11:38:47.775Z,54.70
2024-03-02T11:41:50.148Z,55.40
2024-03-02T11:44:52.275Z,54.10
2024-03-02T11:47:58.782Z,51.40
2024-03-02T11:51:02.436Z,49.30
2024-03-02T11:54:05.251Z,50.50
2024-03-02T11:57:10.300Z,50.80
2024-03-02T12:00:18.848Z,51.10
2024-03-02T12:03:23.279Z,49.60
2024-03-02T12:06:25.242Z,47.50
2024-03-02T12:09:30.677Z,47.70
2024-03-02T12:12:32.482Z,45.90
2024-03-02T12:15:36.569Z,43.70
2024-03-02T12:18:38.329Z,43.30
2024-03-02T12:21:40.513Z,46.70
2024-03-02T12:24:43.455Z,48.40
2024-03-02T12:27:46.246Z,51.30
2024-03-02T12:30:48.009Z,53.50
2024-03-02T12:33:50.211Z,50.80
2024-03-02T12:36:52.004Z,51.20
2024-03-02T12:39:54.268Z,52.70
2024-03-02T12:42:56.100Z,52.10
2024-03-02T12:45:57.994Z,54.60
2024-03-02T12:49:08.181Z,54.10
2024-03-02T12:52:12.675Z,52.80
2024-03-02T12:55:14.526Z,48.70
2024-03-02T12:58:24.213Z,44.50
2024-03-02T13:01:26.116Z,40.50
2024-03-02T13:04:29.470Z,38.90
2024-03-02T13:07:31.051Z,39.30
2024-03-02T13:10:33.946Z,38.40
2024-03-02T13:13:35.680Z,35.70
2024-03-02T13:16:47.116Z,36.80
2024-03-02T13:20:00.428Z,38.60
2024-03-02T13:23:02.308Z,37.80
2024-03-02T13:26:04.313Z,36.80
2024-03-02T13:29:06.328Z,36.30
2024-03-02T13:32:08.135Z,33.10
2024-03-02T13:35:09.851Z,30.60
2024-03-02T13:38:11.571Z,30.50
2024-03-02T13:41:13.438Z,29.90
2024-03-02T13:44:15.462Z,30.40
2024-03-02T13:47:17.512Z,31.80
2024-03-02T13:50:19.802Z,33.40
2024-03-02T13:53:22.024Z,33.40
2024-03-02T13:56:23.706Z,31.90
2024-03-02T13:59:26.271Z,31.70
2024-03-02T14:02:27.973Z,32.00
2024-03-02T14:05:30.129Z,30.90
2024-03-02T14:08:32.499Z,31.50
2024-03-02T14:11:34.567Z,31.90
2024-03-02T14:14:36.343Z,30.70
2024-03-02T14:17:38.276Z,31.80
2024-03-02T14:20:41.060Z,32.30
2024-03-02T14:23:43.606Z,31.40
2024-03-02T14:26:46.944Z,31.60
2024-03-02T14:29:49.044Z,31.70
2024-03-02T14:32:50.781Z,32.40
2024-03-02T14:35:52.736Z,33.30
2024-03-02T14:38:54.900Z,30.70
2024-03-02T14:41:56.579Z,32.60
2024-03-02T14:44:58.289Z,32.00
2024-03-02T14:48:00.432Z,31.90
2024-03-02T14:51:02.706Z,32.60
2024-03-02T14:54:04.740Z,33.00
2024-03-02T14:57:06.456Z,32.90
2024-03-02T15:00:08.534Z,34.70
2024-03-02T15:03:10.241Z,34.10
2024-03-02T15:06:11.935Z,33.00
2024-03-02T15:09:13.664Z,33.60
2024-03-02T15:12:15.365Z,35.90
2024-03-02T15:15:17.208Z,39.00
2024-03-02T15:18:19.202Z,37.70
2024-03-02T15:21:21.735Z,38.10
2024-03-02T15:24:24.625Z,38.50
2024-03-02T15:27:26.399Z,38.30
2024-03-02T15:30:28.828Z,38.90
2024-03-02T15:33:31.113Z,38.80
2024-03-02T15:36:33.177Z,38.70
2024-03-02T15:39:35.355Z,37.30
2024-03-02T15:42:37.143Z,37.60
2024-03-02T15:45:39.461Z,37.90
2024-03-02T15:48:41.251Z,38.30
2024-03-02T15:51:43.317Z,39.70
2024-03-02T15:54:46.750Z,39.70
2024-03-02T15:57:48.709Z,40.80
2024-03-02T16:00:50.483Z,41.00
2024-03-02T16:03:53.035Z,41.20
2024-03-02T16:06:54.785Z,41.50
2024-03-02T16:09:57.400Z,41.60
2024-03-02T16:12:59.171Z,41.90
2024-03-02T16:16:01.003Z,42.30
2024-03-02T16:19:06.137Z,42.80
2024-03-02T16:22:10.590Z,44.70
2024-03-02T16:25:12.715Z,46.10
2024-03-02T16:28:14.494Z,47.40
2024-03-02T16:31:16.748Z,48.50
2024-03-02T16:34:18.484Z,50.10
2024-03-02T16:37:20.241Z,53.00
2024-03-02T16:40:21.938Z,54.90
2024-03-02T16:43:24.257Z,56.90
2024-03-02T16:46:25.919Z,58.50
2024-03-02T16:49:27.595Z,59.60
2024-03-02T16:52:29.401Z,61.20
2024-03-02T16:55:31.111Z,62.20
2024-03-02T16:58:33.403Z,63.70
2024-03-02T17:01:35.935Z,64.80
2024-03-02T17:04:37.852Z,65.80
2024-03-02T17:07:39.889Z,66.20
2024-03-02T17:10:42.156Z,67.10
2024-03-02T17:13:43.841Z,67.90
2024-03-02T17:16:45.793Z,68.90
2024-03-02T17:19:47.507Z,69.60
2024-03-02T17:22:50.398Z,70.30
2024-03-02T17:25:52.551Z,71.20
2024-03-02T17:28:54.181Z,71.60
2024-03-02T17:31:56.413Z,71.80
2024-03-02T17:34:58.071Z,72.20
2024-03-02T17:38:00.229Z,73.70
2024-03-02T17:41:01.899Z,74.80
2024-03-02T17:44:03.604Z,74.90
2024-03-02T17:47:05.485Z,76.30
2024-03-02T17:50:07.510Z,76.40
2024-03-02T17:53:09.752Z,77.00
2024-03-02T17:56:11.699Z,77.80
2024-03-02T17:59:13.429Z,78.30
2024-03-02T18:02:15.162Z,78.60
2024-03-02T18:05:16.985Z,79.30
2024-03-02T18:08:19.169Z,79.90
2024-03-02T18:11:21.601Z,80.40
2024-03-02T18:14:23.258Z,81.20
2024-03-02T18:17:25.358Z,81.60
2024-03-02T18:20:27.166Z,82.20
2024-03-02T18:23:28.815Z,82.70
2024-03-02T18:26:30.577Z,83.20
2024-03-02T18:29:32.212Z,83.50
2024-03-02T18:32:34.407Z,83.80
2024-03-02T18:35:36.069Z,84.40
2024-03-02T18:38:37.724Z,84.60
2024-03-02T18:41:39.393Z,85.10
2024-03-02T18:44:41.035Z,85.30
2024-03-02T18:47:45.528Z,85.60
2024-03-02T18:50:47.545Z,85.90
2024-03-02T18:53:49.451Z,86.00
2024-03-02T18:56:51.383Z,86.10
2024-03-02T18:59:53.061Z,86.50
2024-03-02T19:02:55.290Z,86.80
2024-03-02T19:05:56.970Z,87.00
2024-03-02T19:08:59.232Z,87.40
2024-03-02T19:12:01.509Z,88.70
2024-03-02T19:15:03.469Z,87.80
2024-03-02T19:18:05.609Z,87.30
2024-03-02T19:21:07.666Z,87.20
2024-03-02T19:24:09.346Z,87.20
2024-03-02T19:27:11.955Z,87.40
2024-03-02T19:30:13.859Z,87.20
2024-03-02T19:33:16.023Z,87.50
2024-03-02T19:36:18.161Z,87.50
2024-03-02T19:39:19.797Z,87.70
2024-03-02T19:42:22.118Z,87.70
2024-03-02T19:45:23.892Z,87.70
2024-03-02T19:48:26.116Z,87.70
2024-03-02T19:51:27.834Z,87.90
2024-03-02T19:54:29.485Z,87.90
2024-03-02T19:57:31.774Z,87.90
2024-03-02T20:00:34.089Z,87.90
2024-03-02T20:03:35.844Z,87.90
2024-03-02T20:06:38.336Z,87.90
2024-03-02T20:09:40.024Z,88.00
2024-03-02T20:12:42.170Z,88.20
2024-03-02T20:15:43.900Z,88.20
2024-03-02T20:18:45.592Z,88.40
2024-03-02T20:21:47.311Z,88.60
2024-03-02T20:24:49.053Z,88.80
2024-03-02T20:27:50.785Z,88.90
2024-03-02T20:30:52.499Z,88.80
2024-03-02T20:33:54.193Z,88.90
2024-03-02T20:36:56.727Z,88.90
2024-03-02T20:39:58.486Z,88.80
2024-03-02T20:43:03.789Z,88.80
2024-03-02T20:46:05.517Z,88.90
2024-03-02T20:49:07.367Z,88.80
2024-03-02T20:52:10.795Z,88.80
2024-03-02T20:55:12.703Z,88.80
2024-03-02T20:58:15.007Z,88.80
2024-03-02T21:01:17.271Z,89.00
2024-03-02T21:04:19.036Z,89.00
2024-03-02T21:07:21.428Z,88.90
2024-03-02T21:10:23.218Z,88.80
2024-03-02T21:13:25.514Z,89.00
2024-03-02T21:16:27.244Z,88.90
2024-03-02T21:19:28.979Z,88.90
2024-03-02T21:22:31.399Z,88.90
2024-03-02T21:25:33.704Z,88.90
2024-03-02T21:28:35.341Z,89.10
2024-03-02T21:31:37.680Z,89.00
2024-03-02T21:34:41.169Z,88.90
2024-03-02T21:37:43.456Z,89.00
2024-03-02T21:40:45.111Z,89.20
2024-03-02T21:43:46.749Z,89.50
2024-03-02T21:46:48.418Z,89.80
2024-03-02T21:49:50.614Z,89.50
2024-03-02T21:52:52.257Z,89.60
2024-03-02T21:55:53.949Z,89.40
2024-03-02T21:58:55.599Z,89.60
2024-03-02T22:01:58.397Z,89.50
2024-03-02T22:05:00.701Z,89.80
2024-03-02T22:08:02.434Z,89.70
2024-03-02T22:11:04.290Z,89.60
2024-03-02T22:14:06.065Z,89.50
2024-03-02T22:17:07.740Z,89.30
2024-03-02T22:20:10.113Z,89.40
2024-03-02T22:23:11.792Z,89.20
2024-03-02T22:26:13.798Z,89.40
2024-03-02T22:29:15.886Z,89.30
2024-03-02T22:32:17.522Z,89.40
2024-03-02T22:35:22.521Z,90.00
2024-03-02T22:38:25.470Z,90.20
2024-03-02T22:41:27.413Z,89.90
2024-03-02T22:44:29.537Z,89.70
2024-03-02T22:47:31.276Z,89.50
2024-03-02T22:50:32.971Z,89.30
2024-03-02T22:53:34.799Z,89.30
2024-03-02T22:56:36.462Z,89.20
2024-03-02T22:59:38.558Z,89.10
2024-03-02T23:02:40.209Z,89.10
2024-03-02T23:05:42.928Z,89.00
2024-03-02T23:08:44.590Z,89.00
2024-03-02T23:11:46.220Z,89.10
2024-03-02T23:14:47.909Z,89.40
2024-03-02T23:17:49.588Z,89.40
2024-03-02T23:20:51.461Z,89.60
2024-03-02T23:23:53.587Z,89.90
2024-03-02T23:26:55.276Z,89.90
2024-03-02T23:29:56.948Z,89.50
2024-03-02T23:32:59.565Z,89.20
2024-03-02T23:36:01.232Z,88.90
2024-03-02T23:39:02.926Z,89.10
2024-03-02T23:42:04.673Z,89.20
2024-03-02T23:45:07.705Z,89.30
2024-03-02T23:48:10.389Z,89.40
2024-03-02T23:51:12.022Z,89.60
2024-03-02T23:54:14.307Z,89.40
2024-03-02T23:57:15.990Z,89.60
